sensor_id;sensor_type;location;lat;lon;timestamp;temperature;humidity
9393;DHT22;4736;52.508;13.422;2022-10-16T00:01:44;14.80;1.00
9393;DHT22;4736;52.508;13.422;2022-10-16T00:04:47;14.90;1.00
9393;DHT22;4736;52.508;13.422;2022-10-16T00:07:50;14.90;1.00
9393;DHT22;4736;52.508;13.422;2022-10-16T00:10:58;14.90;1.00
9393;DHT22;4736;52.508;13.422;2022-10-16T00:14:04;14.90;1.00
9393;DHT22;4736;52.508;13.422;2022-10-16T00:17:07;15.00;1.00
9393;DHT22;4736;52.508;13.422;2022-10-16T00:20:10;15.00;1.00
9393;DHT22;4736;52.508;13.422;2022-10-16T00:23:13;15.00;1.00
9393;DHT22;4736;52.508;13.422;2022-10-16T00:26:17;15.00;1.00
9393;DHT22;4736;52.508;13.422;2022-10-16T00:29:21;15.10;1.00
9393;DHT22;4736;52.508;13.422;2022-10-16T00:32:24;15.20;1.00
9393;DHT22;4736;52.508;13.422;2022-10-16T00:35:27;15.20;1.00
9393;DHT22;4736;52.508;13.422;2022-10-16T00:38:31;15.20;1.00
9393;DHT22;4736;52.508;13.422;2022-10-16T00:41:34;15.20;1.00
9393;DHT22;4736;52.508;13.422;2022-10-16T00:44:47;15.30;1.00
9393;DHT22;4736;52.508;13.422;2022-10-16T00:47:52;15.30;1.00
9393;DHT22;4736;52.508;13.422;2022-10-16T00:50:57;15.30;1.00
9393;DHT22;4736;52.508;13.422;2022-10-16T00:54:02;15.30;1.00
9393;DHT22;4736;52.508;13.422;2022-10-16T00:57:07;15.30;1.00
9393;DHT22;4736;52.508;13.422;2022-10-16T01:00:16;15.30;1.00
9393;DHT22;4736;52.508;13.422;2022-10-16T01:03:25;15.30;1.00
9393;DHT22;4736;52.508;13.422;2022-10-16T01:06:36;15.30;1.00
9393;DHT22;4736;52.508;13.422;2022-10-16T01:09:51;15.30;1.00
9393;DHT22;4736;52.508;13.422;2022-10-16T01:13:00;15.30;1.00
9393;DHT22;4736;52.508;13.422;2022-10-16T01:16:09;15.30;1.00
9393;DHT22;4736;52.508;13.422;2022-10-16T01:19:20;15.30;1.00
9393;DHT22;4736;52.508;13.422;2022-10-16T01:22:37;15.30;1.00
9393;DHT22;4736;52.508;13.422;2022-10-16T01:25:53;15.30;1.00
9393;DHT22;4736;52.508;13.422;2022-10-16T01:29:04;15.30;1.00
9393;DHT22;4736;52.508;13.422;2022-10-16T01:32:14;15.40;1.00
9393;DHT22;4736;52.508;13.422;2022-10-16T01:35:21;15.40;1.00
9393;DHT22;4736;52.508;13.422;2022-10-16T01:38:29;15.40;1.00
9393;DHT22;4736;52.508;13.422;2022-10-16T01:41:36;15.50;1.00
9393;DHT22;4736;52.508;13.422;2022-10-16T01:44:43;15.50;1.00
9393;DHT22;4736;52.508;13.422;2022-10-16T01:47:49;15.50;1.00
9393;DHT22;4736;52.508;13.422;2022-10-16T01:50:57;15.50;1.00
9393;DHT22;4736;52.508;13.422;2022-10-16T01:54:02;15.50;1.00
9393;DHT22;4736;52.508;13.422;2022-10-16T01:57:07;15.50;1.00
9393;DHT22;4736;52.508;13.422;2022-10-16T02:00:14;15.50;1.00
9393;DHT22;4736;52.508;13.422;2022-10-16T02:03:18;15.50;1.00
9393;DHT22;4736;52.508;13.422;2022-10-16T02:06:22;15.50;1.00
9393;DHT22;4736;52.508;13.422;2022-10-16T02:09:26;15.50;1.00
9393;DHT22;4736;52.508;13.422;2022-10-16T02:12:32;15.50;1.00
9393;DHT22;4736;52.508;13.422;2022-10-16T02:15:37;15.50;1.00
9393;DHT22;4736;52.508;13.422;2022-10-16T02:18:39;15.50;1.00
9393;DHT22;4736;52.508;13.422;2022-10-16T02:21:45;15.60;1.00
9393;DHT22;4736;52.508;13.422;2022-10-16T02:24:53;15.60;1.00
9393;DHT22;4736;52.508;13.422;2022-10-16T02:28:00;15.60;1.00
9393;DHT22;4736;52.508;13.422;2022-10-16T02:31:08;15.60;1.00
9393;DHT22;4736;52.508;13.422;2022-10-16T02:34:12;15.60;1.00
9393;DHT22;4736;52.508;13.422;2022-10-16T02:37:16;15.60;1.00
9393;DHT22;4736;52.508;13.422;2022-10-16T02:40:20;15.70;1.00
9393;DHT22;4736;52.508;13.422;2022-10-16T02:43:26;15.70;1.00
9393;DHT22;4736;52.508;13.422;2022-10-16T02:46:30;15.70;1.00
9393;DHT22;4736;52.508;13.422;2022-10-16T02:49:33;15.70;1.00
9393;DHT22;4736;52.508;13.422;2022-10-16T02:52:35;15.70;1.00
9393;DHT22;4736;52.508;13.422;2022-10-16T02:55:38;15.70;1.00
9393;DHT22;4736;52.508;13.422;2022-10-16T02:58:41;15.70;1.00
9393;DHT22;4736;52.508;13.422;2022-10-16T03:01:45;15.70;1.00
9393;DHT22;4736;52.508;13.422;2022-10-16T03:04:48;15.70;1.00
9393;DHT22;4736;52.508;13.422;2022-10-16T03:07:51;15.60;1.00
9393;DHT22;4736;52.508;13.422;2022-10-16T03:10:55;15.60;1.00
9393;DHT22;4736;52.508;13.422;2022-10-16T03:13:57;15.50;1.00
9393;DHT22;4736;52.508;13.422;2022-10-16T03:17:02;15.50;1.00
9393;DHT22;4736;52.508;13.422;2022-10-16T03:20:05;15.40;1.00
9393;DHT22;4736;52.508;13.422;2022-10-16T03:23:08;15.40;1.00
9393;DHT22;4736;52.508;13.422;2022-10-16T03:26:11;15.40;1.00
9393;DHT22;4736;52.508;13.422;2022-10-16T03:29:39;15.40;1.00
9393;DHT22;4736;52.508;13.422;2022-10-16T03:33:07;15.30;1.00
9393;DHT22;4736;52.508;13.422;2022-10-16T03:36:10;15.30;1.00
9393;DHT22;4736;52.508;13.422;2022-10-16T03:39:13;15.20;1.00
9393;DHT22;4736;52.508;13.422;2022-10-16T03:42:16;15.30;1.00
9393;DHT22;4736;52.508;13.422;2022-10-16T03:45:19;15.20;1.00
9393;DHT22;4736;52.508;13.422;2022-10-16T03:48:23;15.20;1.00
9393;DHT22;4736;52.508;13.422;2022-10-16T03:51:26;15.10;1.00
9393;DHT22;4736;52.508;13.422;2022-10-16T03:54:28;15.10;1.00
9393;DHT22;4736;52.508;13.422;2022-10-16T03:57:31;15.10;1.00
9393;DHT22;4736;52.508;13.422;2022-10-16T04:00:34;15.10;1.00
9393;DHT22;4736;52.508;13.422;2022-10-16T04:03:38;15.10;1.00
9393;DHT22;4736;52.508;13.422;2022-10-16T04:06:41;15.10;1.00
9393;DHT22;4736;52.508;13.422;2022-10-16T04:09:44;15.00;1.00
9393;DHT22;4736;52.508;13.422;2022-10-16T04:12:47;15.00;1.00
9393;DHT22;4736;52.508;13.422;2022-10-16T04:15:49;15.00;1.00
9393;DHT22;4736;52.508;13.422;2022-10-16T04:18:54;15.00;1.00
9393;DHT22;4736;52.508;13.422;2022-10-16T04:21:56;15.00;1.00
9393;DHT22;4736;52.508;13.422;2022-10-16T04:24:59;15.00;1.00
9393;DHT22;4736;52.508;13.422;2022-10-16T04:28:02;15.00;1.00
9393;DHT22;4736;52.508;13.422;2022-10-16T04:31:06;15.00;1.00
9393;DHT22;4736;52.508;13.422;2022-10-16T04:34:10;14.90;1.00
9393;DHT22;4736;52.508;13.422;2022-10-16T04:37:13;14.90;1.00
9393;DHT22;4736;52.508;13.422;2022-10-16T04:40:16;14.90;1.00
9393;DHT22;4736;52.508;13.422;2022-10-16T04:43:19;14.90;1.00
9393;DHT22;4736;52.508;13.422;2022-10-16T04:46:22;14.90;1.00
9393;DHT22;4736;52.508;13.422;2022-10-16T04:49:26;14.80;1.00
9393;DHT22;4736;52.508;13.422;2022-10-16T04:52:29;14.80;1.00
9393;DHT22;4736;52.508;13.422;2022-10-16T04:55:33;14.80;1.00
9393;DHT22;4736;52.508;13.422;2022-10-16T04:58:36;14.80;1.00
9393;DHT22;4736;52.508;13.422;2022-10-16T05:01:39;14.80;1.00
9393;DHT22;4736;52.508;13.422;2022-10-16T05:04:43;14.70;1.00
9393;DHT22;4736;52.508;13.422;2022-10-16T05:07:46;14.70;1.00
9393;DHT22;4736;52.508;13.422;2022-10-16T05:10:49;14.70;1.00
9393;DHT22;4736;52.508;13.422;2022-10-16T05:13:52;14.60;1.00
9393;DHT22;4736;52.508;13.422;2022-10-16T05:16:56;14.60;1.00
9393;DHT22;4736;52.508;13.422;2022-10-16T05:20:00;14.60;1.00
9393;DHT22;4736;52.508;13.422;2022-10-16T05:23:03;14.60;1.00
9393;DHT22;4736;52.508;13.422;2022-10-16T05:26:06;14.50;1.00
9393;DHT22;4736;52.508;13.422;2022-10-16T05:29:09;14.50;1.00
9393;DHT22;4736;52.508;13.422;2022-10-16T05:32:12;14.50;1.00
9393;DHT22;4736;52.508;13.422;2022-10-16T05:35:17;14.50;1.00
9393;DHT22;4736;52.508;13.422;2022-10-16T05:38:20;14.50;1.00
9393;DHT22;4736;52.508;13.422;2022-10-16T05:41:23;14.50;1.00
9393;DHT22;4736;52.508;13.422;2022-10-16T05:44:27;14.50;1.00
9393;DHT22;4736;52.508;13.422;2022-10-16T05:47:30;14.50;1.00
9393;DHT22;4736;52.508;13.422;2022-10-16T05:50:34;14.50;1.00
9393;DHT22;4736;52.508;13.422;2022-10-16T05:53:38;14.50;1.00
9393;DHT22;4736;52.508;13.422;2022-10-16T05:56:41;14.50;1.00
9393;DHT22;4736;52.508;13.422;2022-10-16T05:59:44;14.50;1.00
9393;DHT22;4736;52.508;13.422;2022-10-16T06:02:47;14.50;1.00
9393;DHT22;4736;52.508;13.422;2022-10-16T06:05:51;14.50;1.00
9393;DHT22;4736;52.508;13.422;2022-10-16T06:08:55;14.50;1.00
9393;DHT22;4736;52.508;13.422;2022-10-16T06:11:58;14.50;1.00
9393;DHT22;4736;52.508;13.422;2022-10-16T06:15:01;14.50;1.00
9393;DHT22;4736;52.508;13.422;2022-10-16T06:18:04;14.50;1.00
9393;DHT22;4736;52.508;13.422;2022-10-16T06:21:10;14.60;1.00
9393;DHT22;4736;52.508;13.422;2022-10-16T06:24:13;14.60;1.00
9393;DHT22;4736;52.508;13.422;2022-10-16T06:27:15;14.60;1.00
9393;DHT22;4736;52.508;13.422;2022-10-16T06:30:18;14.70;1.00
9393;DHT22;4736;52.508;13.422;2022-10-16T06:33:21;14.70;1.00
9393;DHT22;4736;52.508;13.422;2022-10-16T06:36:26;14.80;1.00
9393;DHT22;4736;52.508;13.422;2022-10-16T06:39:28;14.80;1.00
9393;DHT22;4736;52.508;13.422;2022-10-16T06:42:31;14.90;1.00
9393;DHT22;4736;52.508;13.422;2022-10-16T06:45:34;14.90;1.00
9393;DHT22;4736;52.508;13.422;2022-10-16T06:48:37;14.90;1.00
9393;DHT22;4736;52.508;13.422;2022-10-16T06:51:41;15.00;1.00
9393;DHT22;4736;52.508;13.422;2022-10-16T06:54:44;15.00;1.00
9393;DHT22;4736;52.508;13.422;2022-10-16T06:57:47;15.00;1.00
9393;DHT22;4736;52.508;13.422;2022-10-16T07:00:55;15.00;1.00
9393;DHT22;4736;52.508;13.422;2022-10-16T07:03:59;15.00;1.00
9393;DHT22;4736;52.508;13.422;2022-10-16T07:07:03;15.10;1.00
9393;DHT22;4736;52.508;13.422;2022-10-16T07:10:10;15.10;1.00
9393;DHT22;4736;52.508;13.422;2022-10-16T07:13:12;15.20;1.00
9393;DHT22;4736;52.508;13.422;2022-10-16T07:16:17;15.40;1.00
9393;DHT22;4736;52.508;13.422;2022-10-16T07:19:20;15.60;1.00
9393;DHT22;4736;52.508;13.422;2022-10-16T07:22:24;15.80;1.00
9393;DHT22;4736;52.508;13.422;2022-10-16T07:25:28;15.90;1.00
9393;DHT22;4736;52.508;13.422;2022-10-16T07:28:32;16.00;1.00
9393;DHT22;4736;52.508;13.422;2022-10-16T07:31:35;16.10;1.00
9393;DHT22;4736;52.508;13.422;2022-10-16T07:34:39;16.20;1.00
9393;DHT22;4736;52.508;13.422;2022-10-16T07:37:45;16.30;1.00
9393;DHT22;4736;52.508;13.422;2022-10-16T07:40:55;16.30;1.00
9393;DHT22;4736;52.508;13.422;2022-10-16T07:43:59;16.30;1.00
9393;DHT22;4736;52.508;13.422;2022-10-16T07:47:02;16.40;1.00
9393;DHT22;4736;52.508;13.422;2022-10-16T07:50:05;16.50;1.00
9393;DHT22;4736;52.508;13.422;2022-10-16T07:53:09;16.60;1.00
9393;DHT22;4736;52.508;13.422;2022-10-16T07:56:13;16.50;1.00
9393;DHT22;4736;52.508;13.422;2022-10-16T07:59:16;16.50;1.00
9393;DHT22;4736;52.508;13.422;2022-10-16T08:02:18;16.60;1.00
9393;DHT22;4736;52.508;13.422;2022-10-16T08:05:21;16.50;1.00
9393;DHT22;4736;52.508;13.422;2022-10-16T08:08:26;16.60;1.00
9393;DHT22;4736;52.508;13.422;2022-10-16T08:11:29;16.60;1.00
9393;DHT22;4736;52.508;13.422;2022-10-16T08:14:31;16.70;1.00
9393;DHT22;4736;52.508;13.422;2022-10-16T08:17:34;16.90;1.00
9393;DHT22;4736;52.508;13.422;2022-10-16T08:20:38;17.00;1.00
9393;DHT22;4736;52.508;13.422;2022-10-16T08:23:42;17.00;1.00
9393;DHT22;4736;52.508;13.422;2022-10-16T08:26:45;17.00;1.00
9393;DHT22;4736;52.508;13.422;2022-10-16T08:29:48;17.00;1.00
9393;DHT22;4736;52.508;13.422;2022-10-16T08:32:51;17.00;1.00
9393;DHT22;4736;52.508;13.422;2022-10-16T08:35:54;17.10;1.00
9393;DHT22;4736;52.508;13.422;2022-10-16T08:38:58;17.10;1.00
9393;DHT22;4736;52.508;13.422;2022-10-16T08:42:19;17.10;1.00
9393;DHT22;4736;52.508;13.422;2022-10-16T08:45:34;17.10;1.00
9393;DHT22;4736;52.508;13.422;2022-10-16T08:48:44;17.10;1.00
9393;DHT22;4736;52.508;13.422;2022-10-16T08:51:48;17.20;1.00
9393;DHT22;4736;52.508;13.422;2022-10-16T08:54:55;17.20;1.00
9393;DHT22;4736;52.508;13.422;2022-10-16T08:57:59;17.30;1.00
9393;DHT22;4736;52.508;13.422;2022-10-16T09:01:03;17.30;1.00
9393;DHT22;4736;52.508;13.422;2022-10-16T09:04:46;17.30;1.00
9393;DHT22;4736;52.508;13.422;2022-10-16T09:08:03;17.30;1.00
9393;DHT22;4736;52.508;13.422;2022-10-16T09:11:20;17.30;1.00
9393;DHT22;4736;52.508;13.422;2022-10-16T09:14:40;17.40;1.00
9393;DHT22;4736;52.508;13.422;2022-10-16T09:17:52;17.50;1.00
9393;DHT22;4736;52.508;13.422;2022-10-16T09:21:00;17.60;1.00
9393;DHT22;4736;52.508;13.422;2022-10-16T09:24:10;17.60;1.00
9393;DHT22;4736;52.508;13.422;2022-10-16T09:27:16;17.70;1.00
9393;DHT22;4736;52.508;13.422;2022-10-16T09:30:20;17.80;1.00
9393;DHT22;4736;52.508;13.422;2022-10-16T09:33:28;17.80;1.00
9393;DHT22;4736;52.508;13.422;2022-10-16T09:36:37;17.90;1.00
9393;DHT22;4736;52.508;13.422;2022-10-16T09:39:44;18.00;1.00
9393;DHT22;4736;52.508;13.422;2022-10-16T09:42:49;18.10;1.00
9393;DHT22;4736;52.508;13.422;2022-10-16T09:45:57;18.00;1.00
9393;DHT22;4736;52.508;13.422;2022-10-16T09:49:02;18.10;1.00
9393;DHT22;4736;52.508;13.422;2022-10-16T09:52:11;18.10;1.00
9393;DHT22;4736;52.508;13.422;2022-10-16T09:55:16;18.20;1.00
9393;DHT22;4736;52.508;13.422;2022-10-16T09:58:22;18.20;1.00
9393;DHT22;4736;52.508;13.422;2022-10-16T10:01:30;18.30;1.00
9393;DHT22;4736;52.508;13.422;2022-10-16T10:04:39;18.30;1.00
9393;DHT22;4736;52.508;13.422;2022-10-16T10:07:44;18.40;1.00
9393;DHT22;4736;52.508;13.422;2022-10-16T10:10:48;18.50;1.00
9393;DHT22;4736;52.508;13.422;2022-10-16T10:14:03;18.70;1.00
9393;DHT22;4736;52.508;13.422;2022-10-16T10:17:13;18.80;1.00
9393;DHT22;4736;52.508;13.422;2022-10-16T10:20:24;18.80;1.00
9393;DHT22;4736;52.508;13.422;2022-10-16T10:23:28;18.80;1.00
9393;DHT22;4736;52.508;13.422;2022-10-16T10:26:32;18.80;1.00
9393;DHT22;4736;52.508;13.422;2022-10-16T10:29:48;18.80;1.00
9393;DHT22;4736;52.508;13.422;2022-10-16T10:33:09;18.80;1.00
9393;DHT22;4736;52.508;13.422;2022-10-16T10:36:39;18.80;1.00
9393;DHT22;4736;52.508;13.422;2022-10-16T10:39:47;18.80;1.00
9393;DHT22;4736;52.508;13.422;2022-10-16T10:42:54;18.80;1.00
9393;DHT22;4736;52.508;13.422;2022-10-16T10:46:04;18.80;1.00
9393;DHT22;4736;52.508;13.422;2022-10-16T10:49:23;19.00;1.00
9393;DHT22;4736;52.508;13.422;2022-10-16T10:52:38;19.20;1.00
9393;DHT22;4736;52.508;13.422;2022-10-16T10:55:47;19.20;1.00
9393;DHT22;4736;52.508;13.422;2022-10-16T10:59:15;19.20;1.00
9393;DHT22;4736;52.508;13.422;2022-10-16T11:02:28;19.20;1.00
9393;DHT22;4736;52.508;13.422;2022-10-16T11:05:38;19.30;1.00
9393;DHT22;4736;52.508;13.422;2022-10-16T11:08:46;19.50;1.00
9393;DHT22;4736;52.508;13.422;2022-10-16T11:11:54;19.80;1.00
9393;DHT22;4736;52.508;13.422;2022-10-16T11:15:03;20.00;1.00
9393;DHT22;4736;52.508;13.422;2022-10-16T11:18:13;20.20;1.00
9393;DHT22;4736;52.508;13.422;2022-10-16T11:21:21;20.30;1.00
9393;DHT22;4736;52.508;13.422;2022-10-16T11:24:39;20.10;1.00
9393;DHT22;4736;52.508;13.422;2022-10-16T11:27:47;20.00;1.00
9393;DHT22;4736;52.508;13.422;2022-10-16T11:30:54;20.10;1.00
9393;DHT22;4736;52.508;13.422;2022-10-16T11:34:04;20.00;1.00
9393;DHT22;4736;52.508;13.422;2022-10-16T11:37:11;19.70;1.00
9393;DHT22;4736;52.508;13.422;2022-10-16T11:40:24;19.70;1.00
9393;DHT22;4736;52.508;13.422;2022-10-16T11:43:32;19.70;1.00
9393;DHT22;4736;52.508;13.422;2022-10-16T11:46:39;19.70;1.00
9393;DHT22;4736;52.508;13.422;2022-10-16T11:50:10;19.80;1.00
9393;DHT22;4736;52.508;13.422;2022-10-16T11:53:23;19.80;1.00
9393;DHT22;4736;52.508;13.422;2022-10-16T11:56:28;19.70;1.00
9393;DHT22;4736;52.508;13.422;2022-10-16T11:59:36;19.60;1.00
9393;DHT22;4736;52.508;13.422;2022-10-16T12:02:51;19.60;1.00
9393;DHT22;4736;52.508;13.422;2022-10-16T12:06:13;19.50;1.00
9393;DHT22;4736;52.508;13.422;2022-10-16T12:09:22;19.50;1.00
9393;DHT22;4736;52.508;13.422;2022-10-16T12:12:37;19.30;1.00
9393;DHT22;4736;52.508;13.422;2022-10-16T12:15:41;19.30;1.00
9393;DHT22;4736;52.508;13.422;2022-10-16T12:19:11;19.30;1.00
9393;DHT22;4736;52.508;13.422;2022-10-16T12:22:18;19.30;1.00
9393;DHT22;4736;52.508;13.422;2022-10-16T12:25:24;19.50;1.00
9393;DHT22;4736;52.508;13.422;2022-10-16T12:28:30;19.70;1.00
9393;DHT22;4736;52.508;13.422;2022-10-16T12:31:37;19.80;1.00
9393;DHT22;4736;52.508;13.422;2022-10-16T12:34:58;20.00;1.00
9393;DHT22;4736;52.508;13.422;2022-10-16T12:38:08;20.10;1.00
9393;DHT22;4736;52.508;13.422;2022-10-16T12:41:25;20.10;1.00
9393;DHT22;4736;52.508;13.422;2022-10-16T12:44:33;20.20;1.00
9393;DHT22;4736;52.508;13.422;2022-10-16T12:47:47;20.20;1.00
9393;DHT22;4736;52.508;13.422;2022-10-16T12:50:50;20.30;1.00
9393;DHT22;4736;52.508;13.422;2022-10-16T12:54:01;20.30;1.00
9393;DHT22;4736;52.508;13.422;2022-10-16T12:57:18;20.40;1.00
9393;DHT22;4736;52.508;13.422;2022-10-16T13:00:31;20.50;1.00
9393;DHT22;4736;52.508;13.422;2022-10-16T13:04:04;20.50;1.00
9393;DHT22;4736;52.508;13.422;2022-10-16T13:07:37;20.60;1.00
9393;DHT22;4736;52.508;13.422;2022-10-16T13:10:59;20.70;1.00
9393;DHT22;4736;52.508;13.422;2022-10-16T13:14:19;20.70;1.00
9393;DHT22;4736;52.508;13.422;2022-10-16T13:17:30;20.70;1.00
9393;DHT22;4736;52.508;13.422;2022-10-16T13:20:43;20.80;1.00
9393;DHT22;4736;52.508;13.422;2022-10-16T13:23:57;20.70;1.00
9393;DHT22;4736;52.508;13.422;2022-10-16T13:27:09;20.80;1.00
9393;DHT22;4736;52.508;13.422;2022-10-16T13:30:18;20.90;1.00
9393;DHT22;4736;52.508;13.422;2022-10-16T13:33:30;20.90;1.00
9393;DHT22;4736;52.508;13.422;2022-10-16T13:36:42;21.00;1.00
9393;DHT22;4736;52.508;13.422;2022-10-16T13:39:45;21.00;1.00
9393;DHT22;4736;52.508;13.422;2022-10-16T13:42:50;21.10;1.00
9393;DHT22;4736;52.508;13.422;2022-10-16T13:45:58;21.10;1.00
9393;DHT22;4736;52.508;13.422;2022-10-16T13:49:03;21.00;1.00
9393;DHT22;4736;52.508;13.422;2022-10-16T13:52:16;20.90;1.00
9393;DHT22;4736;52.508;13.422;2022-10-16T13:55:19;20.90;1.00
9393;DHT22;4736;52.508;13.422;2022-10-16T13:58:23;20.90;1.00
9393;DHT22;4736;52.508;13.422;2022-10-16T14:01:28;20.80;1.00
9393;DHT22;4736;52.508;13.422;2022-10-16T14:04:33;20.80;1.00
9393;DHT22;4736;52.508;13.422;2022-10-16T14:07:41;20.70;1.00
9393;DHT22;4736;52.508;13.422;2022-10-16T14:10:48;20.60;1.00
9393;DHT22;4736;52.508;13.422;2022-10-16T14:13:53;20.60;1.00
9393;DHT22;4736;52.508;13.422;2022-10-16T14:16:56;20.60;1.00
9393;DHT22;4736;52.508;13.422;2022-10-16T14:20:02;20.40;1.00
9393;DHT22;4736;52.508;13.422;2022-10-16T14:23:20;20.30;1.00
9393;DHT22;4736;52.508;13.422;2022-10-16T14:26:26;20.20;1.00
9393;DHT22;4736;52.508;13.422;2022-10-16T14:29:30;20.20;1.00
9393;DHT22;4736;52.508;13.422;2022-10-16T14:32:34;20.00;1.00
9393;DHT22;4736;52.508;13.422;2022-10-16T14:35:39;20.00;1.00
9393;DHT22;4736;52.508;13.422;2022-10-16T14:38:48;20.00;1.00
9393;DHT22;4736;52.508;13.422;2022-10-16T14:41:52;19.90;1.00
9393;DHT22;4736;52.508;13.422;2022-10-16T14:44:59;19.80;1.00
9393;DHT22;4736;52.508;13.422;2022-10-16T14:48:05;19.80;1.00
9393;DHT22;4736;52.508;13.422;2022-10-16T14:51:13;19.70;1.00
9393;DHT22;4736;52.508;13.422;2022-10-16T14:54:18;19.60;1.00
9393;DHT22;4736;52.508;13.422;2022-10-16T14:57:23;19.60;1.00
9393;DHT22;4736;52.508;13.422;2022-10-16T15:00:28;19.50;1.00
9393;DHT22;4736;52.508;13.422;2022-10-16T15:03:31;19.40;1.00
9393;DHT22;4736;52.508;13.422;2022-10-16T15:06:34;19.40;1.00
9393;DHT22;4736;52.508;13.422;2022-10-16T15:09:36;19.20;1.00
9393;DHT22;4736;52.508;13.422;2022-10-16T15:12:39;19.20;1.00
9393;DHT22;4736;52.508;13.422;2022-10-16T15:15:45;19.20;1.00
9393;DHT22;4736;52.508;13.422;2022-10-16T15:18:48;19.20;1.00
9393;DHT22;4736;52.508;13.422;2022-10-16T15:21:51;19.10;1.00
9393;DHT22;4736;52.508;13.422;2022-10-16T15:24:53;19.00;1.00
9393;DHT22;4736;52.508;13.422;2022-10-16T15:27:56;19.00;1.00
9393;DHT22;4736;52.508;13.422;2022-10-16T15:31:01;18.90;1.00
9393;DHT22;4736;52.508;13.422;2022-10-16T15:34:04;18.80;1.00
9393;DHT22;4736;52.508;13.422;2022-10-16T15:37:08;18.70;1.00
9393;DHT22;4736;52.508;13.422;2022-10-16T15:40:14;18.60;1.00
9393;DHT22;4736;52.508;13.422;2022-10-16T15:43:17;18.60;1.00
9393;DHT22;4736;52.508;13.422;2022-10-16T15:46:23;18.50;1.00
9393;DHT22;4736;52.508;13.422;2022-10-16T15:49:25;18.40;1.00
9393;DHT22;4736;52.508;13.422;2022-10-16T15:52:29;18.30;1.00
9393;DHT22;4736;52.508;13.422;2022-10-16T15:55:34;18.20;1.00
9393;DHT22;4736;52.508;13.422;2022-10-16T15:58:39;18.10;1.00
9393;DHT22;4736;52.508;13.422;2022-10-16T16:01:43;18.00;1.00
9393;DHT22;4736;52.508;13.422;2022-10-16T16:04:46;18.00;1.00
9393;DHT22;4736;52.508;13.422;2022-10-16T16:07:50;18.00;1.00
9393;DHT22;4736;52.508;13.422;2022-10-16T16:10:59;17.90;1.00
9393;DHT22;4736;52.508;13.422;2022-10-16T16:14:02;17.80;1.00
9393;DHT22;4736;52.508;13.422;2022-10-16T16:17:06;17.60;1.00
9393;DHT22;4736;52.508;13.422;2022-10-16T16:20:10;17.50;1.00
9393;DHT22;4736;52.508;13.422;2022-10-16T16:23:13;17.30;1.00
9393;DHT22;4736;52.508;13.422;2022-10-16T16:26:23;17.20;1.00
9393;DHT22;4736;52.508;13.422;2022-10-16T16:29:27;17.10;1.00
9393;DHT22;4736;52.508;13.422;2022-10-16T16:32:32;16.90;1.00
9393;DHT22;4736;52.508;13.422;2022-10-16T16:35:35;16.80;1.00
9393;DHT22;4736;52.508;13.422;2022-10-16T16:38:38;16.70;1.00
9393;DHT22;4736;52.508;13.422;2022-10-16T16:41:40;16.60;1.00
9393;DHT22;4736;52.508;13.422;2022-10-16T16:44:43;16.50;1.00
9393;DHT22;4736;52.508;13.422;2022-10-16T16:47:47;16.40;1.00
9393;DHT22;4736;52.508;13.422;2022-10-16T16:50:50;16.30;1.00
9393;DHT22;4736;52.508;13.422;2022-10-16T16:53:54;16.20;1.00
9393;DHT22;4736;52.508;13.422;2022-10-16T16:56:57;16.10;1.00
9393;DHT22;4736;52.508;13.422;2022-10-16T17:00:00;16.00;1.00
9393;DHT22;4736;52.508;13.422;2022-10-16T17:03:04;16.00;1.00
9393;DHT22;4736;52.508;13.422;2022-10-16T17:06:07;15.90;1.00
9393;DHT22;4736;52.508;13.422;2022-10-16T17:09:11;15.80;1.00
9393;DHT22;4736;52.508;13.422;2022-10-16T17:12:16;15.70;1.00
9393;DHT22;4736;52.508;13.422;2022-10-16T17:15:19;15.70;1.00
9393;DHT22;4736;52.508;13.422;2022-10-16T17:18:24;15.60;1.00
9393;DHT22;4736;52.508;13.422;2022-10-16T17:21:26;15.50;1.00
9393;DHT22;4736;52.508;13.422;2022-10-16T17:24:31;15.40;1.00
9393;DHT22;4736;52.508;13.422;2022-10-16T17:27:34;15.30;1.00
9393;DHT22;4736;52.508;13.422;2022-10-16T17:30:37;15.20;1.00
9393;DHT22;4736;52.508;13.422;2022-10-16T17:33:42;15.20;1.00
9393;DHT22;4736;52.508;13.422;2022-10-16T17:36:45;15.10;1.00
9393;DHT22;4736;52.508;13.422;2022-10-16T17:39:49;15.00;1.00
9393;DHT22;4736;52.508;13.422;2022-10-16T17:42:52;14.90;1.00
9393;DHT22;4736;52.508;13.422;2022-10-16T17:45:55;14.90;1.00
9393;DHT22;4736;52.508;13.422;2022-10-16T17:48:59;14.80;1.00
9393;DHT22;4736;52.508;13.422;2022-10-16T17:52:02;14.80;1.00
9393;DHT22;4736;52.508;13.422;2022-10-16T17:55:06;14.70;1.00
9393;DHT22;4736;52.508;13.422;2022-10-16T17:58:09;14.60;1.00
9393;DHT22;4736;52.508;13.422;2022-10-16T18:01:12;14.60;1.00
9393;DHT22;4736;52.508;13.422;2022-10-16T18:04:17;14.50;1.00
9393;DHT22;4736;52.508;13.422;2022-10-16T18:07:19;14.40;1.00
9393;DHT22;4736;52.508;13.422;2022-10-16T18:10:22;14.40;1.00
9393;DHT22;4736;52.508;13.422;2022-10-16T18:13:25;14.30;1.00
9393;DHT22;4736;52.508;13.422;2022-10-16T18:16:29;14.20;1.00
9393;DHT22;4736;52.508;13.422;2022-10-16T18:19:33;14.20;1.00
9393;DHT22;4736;52.508;13.422;2022-10-16T18:22:36;14.20;1.00
9393;DHT22;4736;52.508;13.422;2022-10-16T18:25:39;14.10;1.00
9393;DHT22;4736;52.508;13.422;2022-10-16T18:28:42;14.10;1.00
9393;DHT22;4736;52.508;13.422;2022-10-16T18:31:45;14.10;1.00
9393;DHT22;4736;52.508;13.422;2022-10-16T18:34:49;14.10;1.00
9393;DHT22;4736;52.508;13.422;2022-10-16T18:37:52;14.00;1.00
9393;DHT22;4736;52.508;13.422;2022-10-16T18:40:59;14.00;1.00
9393;DHT22;4736;52.508;13.422;2022-10-16T18:44:03;13.90;1.00
9393;DHT22;4736;52.508;13.422;2022-10-16T18:47:06;13.90;1.00
9393;DHT22;4736;52.508;13.422;2022-10-16T18:50:10;13.90;1.00
9393;DHT22;4736;52.508;13.422;2022-10-16T18:53:13;13.80;1.00
9393;DHT22;4736;52.508;13.422;2022-10-16T18:56:18;13.70;1.00
9393;DHT22;4736;52.508;13.422;2022-10-16T18:59:22;13.70;1.00
9393;DHT22;4736;52.508;13.422;2022-10-16T19:02:26;13.70;1.00
9393;DHT22;4736;52.508;13.422;2022-10-16T19:05:32;13.60;1.00
9393;DHT22;4736;52.508;13.422;2022-10-16T19:08:36;13.60;1.00
9393;DHT22;4736;52.508;13.422;2022-10-16T19:11:39;13.60;1.00
9393;DHT22;4736;52.508;13.422;2022-10-16T19:14:42;13.60;1.00
9393;DHT22;4736;52.508;13.422;2022-10-16T19:17:45;13.60;1.00
9393;DHT22;4736;52.508;13.422;2022-10-16T19:20:49;13.60;1.00
9393;DHT22;4736;52.508;13.422;2022-10-16T19:23:53;13.50;1.00
9393;DHT22;4736;52.508;13.422;2022-10-16T19:26:56;13.50;1.00
9393;DHT22;4736;52.508;13.422;2022-10-16T19:29:59;13.50;1.00
9393;DHT22;4736;52.508;13.422;2022-10-16T19:33:02;13.50;1.00
9393;DHT22;4736;52.508;13.422;2022-10-16T19:36:10;13.40;1.00
9393;DHT22;4736;52.508;13.422;2022-10-16T19:39:15;13.40;1.00
9393;DHT22;4736;52.508;13.422;2022-10-16T19:42:18;13.40;1.00
9393;DHT22;4736;52.508;13.422;2022-10-16T19:45:21;13.50;1.00
9393;DHT22;4736;52.508;13.422;2022-10-16T19:48:23;13.40;1.00
9393;DHT22;4736;52.508;13.422;2022-10-16T19:51:29;13.40;1.00
9393;DHT22;4736;52.508;13.422;2022-10-16T19:54:32;13.50;1.00
9393;DHT22;4736;52.508;13.422;2022-10-16T19:57:37;13.50;1.00
9393;DHT22;4736;52.508;13.422;2022-10-16T20:00:40;13.50;1.00
9393;DHT22;4736;52.508;13.422;2022-10-16T20:03:44;13.50;1.00
9393;DHT22;4736;52.508;13.422;2022-10-16T20:06:48;13.40;1.00
9393;DHT22;4736;52.508;13.422;2022-10-16T20:09:52;13.40;1.00
9393;DHT22;4736;52.508;13.422;2022-10-16T20:12:54;13.40;1.00
9393;DHT22;4736;52.508;13.422;2022-10-16T20:15:57;13.40;1.00